createdAt,value
2022-11-06T00:04:40.870Z,9.1
2022-11-06T00:34:41.439Z,9
2022-11-06T00:47:19.971Z,8.9
2022-11-06T00:54:50.764Z,8.8
2022-11-06T01:14:51.605Z,8.7
2022-11-06T01:24:52.161Z,8.6
2022-11-06T01:34:52.449Z,8.6
2022-11-06T01:44:53.303Z,8.6
2022-11-06T01:54:53.456Z,8.7
2022-11-06T02:04:53.972Z,8.6
2022-11-06T02:14:54.651Z,8.6
2022-11-06T02:24:55.695Z,8.6
2022-11-06T02:34:55.804Z,8.6
2022-11-06T02:44:56.820Z,8.6
2022-11-06T02:54:57.069Z,8.6
2022-11-06T03:04:57.232Z,8.6
2022-11-06T03:24:58.089Z,8.6
2022-11-06T03:44:58.443Z,8.6
2022-11-06T03:54:59.489Z,8.5
2022-11-06T04:05:00.034Z,8.6
2022-11-06T04:15:00.437Z,8.6
2022-11-06T04:25:00.589Z,8.6
2022-11-06T04:35:01.645Z,8.6
2022-11-06T04:45:01.942Z,8.6
2022-11-06T04:55:02.562Z,8.6
2022-11-06T05:05:03.320Z,8.6
2022-11-06T05:25:04.676Z,8.5
2022-11-06T05:55:08.923Z,8.3
2022-11-06T06:05:06.727Z,8.3
2022-11-06T06:15:06.892Z,8.2
2022-11-06T06:35:08.663Z,8.3
2022-11-06T06:45:08.813Z,8.3
2022-11-06T06:55:09.710Z,8.4
2022-11-06T07:05:10.637Z,8.5
2022-11-06T07:15:10.780Z,8.6
2022-11-06T07:25:11.461Z,8.6
2022-11-06T07:35:11.856Z,8.8
2022-11-06T07:45:12.643Z,8.9
2022-11-06T07:55:13.578Z,9.1
2022-11-06T08:05:14.125Z,9.4
2022-11-06T08:15:14.828Z,9.9
2022-11-06T08:25:15.054Z,9.9
2022-11-06T08:35:16.073Z,10
2022-11-06T08:45:16.786Z,10
2022-11-06T08:55:17.335Z,10.1
2022-11-06T09:05:17.561Z,10.3
2022-11-06T09:15:18.155Z,10.6
2022-11-06T09:35:19.765Z,11
2022-11-06T09:45:20.377Z,11
2022-11-06T10:05:21.560Z,11.2
2022-11-06T10:15:22.403Z,11.3
2022-11-06T10:25:23.084Z,11.5
2022-11-06T10:55:25.420Z,11.9
2022-11-06T11:05:25.598Z,12.1
2022-11-06T11:15:26.551Z,12.2
2022-11-06T11:25:26.760Z,12.6
2022-11-06T11:35:27.380Z,12.7
2022-11-06T11:45:27.622Z,12.3
2022-11-06T11:55:28.051Z,12.3
2022-11-06T12:05:28.204Z,12
2022-11-06T12:25:29.503Z,11.9
2022-11-06T12:35:30.401Z,12.2
2022-11-06T13:15:33.127Z,12
2022-11-06T13:25:38.257Z,12.1
2022-11-06T13:35:34.665Z,12
2022-11-06T13:45:35.191Z,12
2022-11-06T13:55:35.717Z,12
2022-11-06T14:05:36.483Z,12
2022-11-06T14:15:37.075Z,12
2022-11-06T14:25:37.538Z,11.9
2022-11-06T14:35:38.387Z,12
2022-11-06T14:45:39.121Z,12
2022-11-06T14:55:39.553Z,12.1
2022-11-06T15:15:40.305Z,12
2022-11-06T16:25:43.052Z,10.6
2022-11-06T16:35:43.720Z,10.3
2022-11-06T16:45:44.662Z,9.9
2022-11-06T16:55:45.471Z,9.7
2022-11-06T17:05:45.621Z,9.6
2022-11-06T17:15:46.357Z,9.7
2022-11-06T17:25:46.823Z,9.7
2022-11-06T17:35:47.174Z,9.7
2022-11-06T17:45:48.073Z,9.6
2022-11-06T17:55:48.726Z,9.6
2022-11-06T18:05:49.189Z,9.6
2022-11-06T18:15:50.202Z,9.7
2022-11-06T18:25:50.547Z,9.7
2022-11-06T18:35:50.692Z,9.7
2022-11-06T18:45:50.817Z,9.8
2022-11-06T18:55:50.984Z,9.9
2022-11-06T19:05:51.054Z,10
2022-11-06T19:26:04.472Z,10.1
2022-11-06T19:35:52.734Z,10.2
2022-11-06T19:55:53.567Z,10.3
2022-11-06T20:05:53.844Z,10.4
2022-11-06T20:15:54.676Z,10.7
2022-11-06T20:25:55.186Z,10.7
2022-11-06T20:35:55.754Z,10.7
2022-11-06T20:45:56.783Z,10.7
2022-11-06T20:55:57.632Z,10.6
2022-11-06T21:05:58.154Z,10.6
2022-11-06T21:15:58.510Z,10.7
2022-11-06T21:25:59.106Z,10.5
2022-11-06T21:35:59.705Z,10.6
2022-11-06T21:46:00.357Z,10.7
2022-11-06T21:56:00.627Z,10.8
2022-11-06T22:06:01.556Z,10.9
2022-11-06T22:16:01.727Z,10.9
2022-11-06T22:26:02.340Z,10.9
2022-11-06T22:46:03.964Z,10.9
2022-11-06T22:56:04.341Z,10.9
2022-11-06T23:06:05.231Z,10.9
2022-11-06T23:16:05.578Z,10.9
2022-11-06T23:56:07.243Z,11.1
